createdAt,value
2023-02-08T00:01:16.326Z,29.17
2023-02-08T00:03:44.491Z,32.57
2023-02-08T00:06:14.380Z,24.90
2023-02-08T00:08:42.574Z,27.73
2023-02-08T00:11:12.088Z,24.97
2023-02-08T00:13:42.199Z,25.53
2023-02-08T00:16:10.941Z,23.70
2023-02-08T00:18:38.864Z,28.33
2023-02-08T00:21:11.381Z,25.83
2023-02-08T00:23:40.733Z,25.70
2023-02-08T00:26:08.979Z,23.83
2023-02-08T00:28:37.606Z,23.43
2023-02-08T00:31:06.616Z,25.30
2023-02-08T00:33:35.663Z,23.53
2023-02-08T00:36:05.947Z,21.13
2023-02-08T00:38:34.194Z,22.27
2023-02-08T00:41:03.405Z,23.43
2023-02-08T00:43:31.346Z,25.40
2023-02-08T00:46:00.750Z,28.43
2023-02-08T00:48:29.510Z,25.70
2023-02-08T00:51:02.339Z,21.27
2023-02-08T00:53:30.585Z,24.17
2023-02-08T00:55:58.818Z,28.07
2023-02-08T00:58:28.210Z,29.37
2023-02-08T01:00:56.514Z,30.47
2023-02-08T01:03:25.351Z,31.23
2023-02-08T01:05:53.348Z,29.40
2023-02-08T01:08:22.074Z,26.33
2023-02-08T01:10:50.285Z,31.93
2023-02-08T01:13:18.288Z,27.90
2023-02-08T01:15:47.568Z,25.77
2023-02-08T01:18:15.425Z,29.67
2023-02-08T01:20:43.410Z,33.43
2023-02-08T01:23:11.290Z,27.80
2023-02-08T01:25:39.430Z,26.27
2023-02-08T01:28:07.376Z,30.97
2023-02-08T01:30:35.401Z,31.73
2023-02-08T01:33:06.040Z,31.30
2023-02-08T01:35:33.959Z,29.30
2023-02-08T01:38:01.766Z,27.87
2023-02-08T01:40:29.582Z,29.90
2023-02-08T01:42:57.426Z,28.60
2023-02-08T01:45:28.791Z,26.77
2023-02-08T01:48:04.094Z,32.13
2023-02-08T01:50:43.225Z,27.93
2023-02-08T01:53:12.390Z,28.13
2023-02-08T01:55:45.800Z,31.40
2023-02-08T01:58:16.348Z,29.83
2023-02-08T02:00:44.291Z,26.97
2023-02-08T02:03:14.771Z,26.23
2023-02-08T02:05:49.531Z,28.30
2023-02-08T02:08:17.531Z,33.37
2023-02-08T02:10:45.573Z,30.73
2023-02-08T02:13:20.480Z,33.33
2023-02-08T02:15:49.547Z,35.20
2023-02-08T02:18:23.228Z,33.20
2023-02-08T02:21:26.349Z,32.33
2023-02-08T02:24:33.891Z,30.73
2023-02-08T02:27:20.642Z,31.50
2023-02-08T02:30:25.875Z,33.83
2023-02-08T02:33:06.231Z,32.00
2023-02-08T02:35:42.356Z,31.93
2023-02-08T02:38:21.574Z,31.90
2023-02-08T02:41:01.653Z,34.80
2023-02-08T02:43:42.662Z,36.33
2023-02-08T02:46:22.992Z,31.90
2023-02-08T02:49:00.849Z,32.47
2023-02-08T02:51:34.993Z,29.87
2023-02-08T02:54:08.322Z,23.10
2023-02-08T02:56:40.370Z,27.27
2023-02-08T02:59:10.822Z,27.73
2023-02-08T03:01:39.456Z,35.00
2023-02-08T03:04:16.105Z,30.40
2023-02-08T03:06:56.867Z,27.03
2023-02-08T03:09:48.708Z,29.87
2023-02-08T03:12:36.081Z,35.20
2023-02-08T03:15:14.663Z,37.83
2023-02-08T03:17:55.785Z,32.03
2023-02-08T03:20:29.018Z,37.50
2023-02-08T03:23:03.568Z,33.63
2023-02-08T03:25:39.910Z,32.60
2023-02-08T03:28:14.784Z,31.47
2023-02-08T03:30:51.999Z,35.97
2023-02-08T03:33:28.690Z,30.40
2023-02-08T03:36:04.582Z,32.77
2023-02-08T03:38:36.950Z,27.17
2023-02-08T03:41:08.824Z,33.00
2023-02-08T03:43:39.732Z,30.40
2023-02-08T03:46:11.813Z,32.83
2023-02-08T03:48:44.500Z,29.50
2023-02-08T03:51:16.388Z,31.43
2023-02-08T03:53:46.775Z,33.90
2023-02-08T03:56:21.466Z,36.80
2023-02-08T03:58:56.429Z,34.47
2023-02-08T04:01:29.296Z,32.03
2023-02-08T04:03:59.315Z,29.70
2023-02-08T04:06:29.117Z,33.40
2023-02-08T04:08:57.098Z,29.13
2023-02-08T04:11:24.938Z,31.60
2023-02-08T04:13:52.798Z,32.97
2023-02-08T04:16:20.661Z,29.37
2023-02-08T04:18:48.550Z,30.40
2023-02-08T04:22:17.157Z,29.10
2023-02-08T04:24:46.362Z,26.30
2023-02-08T04:27:14.209Z,25.17
2023-02-08T04:29:42.298Z,28.67
2023-02-08T04:32:11.778Z,26.17
2023-02-08T04:34:39.973Z,24.53
2023-02-08T04:37:09.183Z,25.57
2023-02-08T04:39:37.131Z,25.93
2023-02-08T04:42:06.426Z,19.50
2023-02-08T04:44:34.292Z,21.90
2023-02-08T04:47:02.219Z,24.07
2023-02-08T04:49:30.105Z,24.53
2023-02-08T04:51:57.924Z,27.67
2023-02-08T04:54:25.812Z,23.67
2023-02-08T04:56:53.764Z,28.23
2023-02-08T04:59:23.082Z,27.00
2023-02-08T05:01:50.988Z,25.37
2023-02-08T05:04:18.926Z,27.70
2023-02-08T05:06:48.403Z,24.77
2023-02-08T05:09:16.651Z,23.17
2023-02-08T05:11:44.506Z,27.30
2023-02-08T05:14:12.433Z,26.60
2023-02-08T05:16:41.671Z,24.67
2023-02-08T05:19:11.887Z,24.60
2023-02-08T05:21:39.745Z,27.07
2023-02-08T05:24:08.001Z,29.40
2023-02-08T05:26:35.874Z,22.07
2023-02-08T05:29:03.984Z,25.20
2023-02-08T05:31:32.012Z,29.33
2023-02-08T05:34:01.360Z,22.63
2023-02-08T05:36:30.766Z,23.83
2023-02-08T05:38:58.783Z,24.07
2023-02-08T05:41:26.641Z,21.37
2023-02-08T05:43:54.526Z,26.07
2023-02-08T05:46:22.459Z,22.27
2023-02-08T05:48:50.466Z,22.07
2023-02-08T05:51:20.810Z,21.70
2023-02-08T05:53:48.727Z,22.77
2023-02-08T05:56:16.530Z,22.00
2023-02-08T05:58:44.484Z,19.47
2023-02-08T06:01:13.586Z,19.90
2023-02-08T06:03:42.152Z,20.50
2023-02-08T06:06:11.850Z,22.80
2023-02-08T06:08:41.511Z,22.37
2023-02-08T06:11:09.405Z,19.57
2023-02-08T06:13:37.304Z,26.43
2023-02-08T06:16:05.648Z,20.20
2023-02-08T06:18:33.523Z,23.70
2023-02-08T06:21:01.416Z,23.90
2023-02-08T06:23:29.254Z,23.40
2023-02-08T06:25:58.562Z,20.90
2023-02-08T06:28:26.456Z,18.93
2023-02-08T06:30:54.386Z,22.93
2023-02-08T06:33:22.334Z,22.17
2023-02-08T06:35:53.084Z,23.17
2023-02-08T06:38:21.478Z,20.67
2023-02-08T06:40:50.237Z,27.97
2023-02-08T06:43:20.181Z,24.83
2023-02-08T06:45:48.388Z,24.63
2023-02-08T06:48:16.532Z,23.10
2023-02-08T06:50:44.605Z,26.27
2023-02-08T06:53:12.679Z,25.17
2023-02-08T06:55:40.532Z,22.90
2023-02-08T06:58:08.480Z,23.80
2023-02-08T07:00:39.332Z,24.23
2023-02-08T07:03:07.317Z,21.60
2023-02-08T07:05:35.561Z,22.87
2023-02-08T07:08:04.924Z,26.30
2023-02-08T07:10:33.029Z,24.37
2023-02-08T07:13:02.648Z,23.80
2023-02-08T07:15:30.982Z,23.90
2023-02-08T07:18:00.262Z,22.60
2023-02-08T07:20:28.394Z,21.90
2023-02-08T07:22:56.512Z,25.40
2023-02-08T07:25:24.523Z,20.00
2023-02-08T07:27:52.421Z,21.10
2023-02-08T07:30:20.419Z,24.27
2023-02-08T07:32:48.296Z,21.43
2023-02-08T07:35:17.607Z,25.70
2023-02-08T07:37:45.510Z,25.50
2023-02-08T07:40:13.696Z,32.00
2023-02-08T07:42:41.485Z,27.97
2023-02-08T07:45:20.579Z,25.60
2023-02-08T07:47:48.562Z,23.03
2023-02-08T07:50:18.226Z,24.73
2023-02-08T07:52:47.458Z,25.33
2023-02-08T07:55:17.197Z,28.20
2023-02-08T07:57:45.766Z,22.60
2023-02-08T08:00:15.133Z,27.17
2023-02-08T08:02:43.546Z,24.10
2023-02-08T08:05:12.273Z,23.37
2023-02-08T08:07:41.546Z,24.23
2023-02-08T08:10:09.996Z,24.60
2023-02-08T08:12:37.918Z,25.10
2023-02-08T08:15:06.867Z,28.00
2023-02-08T08:17:34.735Z,23.53
2023-02-08T08:20:02.543Z,26.27
2023-02-08T08:22:30.552Z,32.10
2023-02-08T08:25:00.051Z,27.70
2023-02-08T08:27:28.026Z,25.03
2023-02-08T08:29:55.907Z,24.17
2023-02-08T08:32:23.927Z,25.30
2023-02-08T08:34:51.797Z,21.57
2023-02-08T08:37:19.684Z,24.67
2023-02-08T08:39:47.531Z,31.47
2023-02-08T08:42:16.964Z,22.97
2023-02-08T08:44:45.404Z,28.67
2023-02-08T08:47:13.343Z,28.00
2023-02-08T08:49:42.674Z,22.40
2023-02-08T08:52:11.301Z,26.43
2023-02-08T08:54:39.203Z,20.70
2023-02-08T08:57:07.993Z,22.60
2023-02-08T08:59:37.145Z,24.50
2023-02-08T09:02:05.389Z,26.73
2023-02-08T09:04:33.321Z,30.80
2023-02-08T09:07:01.464Z,24.47
2023-02-08T09:09:29.299Z,23.13
2023-02-08T09:11:57.269Z,22.70
2023-02-08T09:14:25.206Z,21.53
2023-02-08T09:16:54.831Z,21.80
2023-02-08T09:19:22.698Z,24.63
2023-02-08T09:21:50.544Z,26.93
2023-02-08T09:24:19.335Z,26.47
2023-02-08T09:26:47.142Z,23.07
2023-02-08T09:29:14.962Z,23.30
2023-02-08T09:31:43.044Z,23.03
2023-02-08T09:34:12.399Z,19.23
2023-02-08T09:36:41.876Z,20.20
2023-02-08T09:39:13.179Z,19.57
2023-02-08T09:42:13.970Z,18.83
2023-02-08T09:44:54.439Z,21.70
2023-02-08T09:47:25.737Z,24.03
2023-02-08T09:49:59.822Z,20.43
2023-02-08T09:52:34.079Z,20.73
2023-02-08T09:55:11.705Z,20.57
2023-02-08T09:57:40.338Z,18.07
2023-02-08T10:00:15.026Z,20.70
2023-02-08T10:02:44.959Z,18.97
2023-02-08T10:05:16.776Z,23.60
2023-02-08T10:07:45.008Z,21.70
2023-02-08T10:10:16.980Z,18.57
2023-02-08T10:12:52.578Z,19.23
2023-02-08T10:15:35.275Z,22.70
2023-02-08T10:18:15.515Z,18.63
2023-02-08T10:21:06.454Z,19.20
2023-02-08T10:23:49.069Z,17.17
2023-02-08T10:26:27.075Z,15.63
2023-02-08T10:29:17.978Z,18.43
2023-02-08T10:31:59.765Z,17.60
2023-02-08T10:34:42.044Z,17.80
2023-02-08T10:37:17.486Z,16.87
2023-02-08T10:39:46.202Z,15.17
2023-02-08T10:42:17.023Z,20.87
2023-02-08T10:44:57.359Z,17.47
2023-02-08T10:47:39.419Z,15.17
2023-02-08T10:50:13.530Z,15.77
2023-02-08T10:52:42.957Z,16.13
2023-02-08T10:55:16.139Z,16.13
2023-02-08T10:57:44.908Z,18.70
2023-02-08T11:00:19.627Z,19.20
2023-02-08T11:02:49.539Z,15.23
2023-02-08T11:05:20.030Z,17.30
2023-02-08T11:08:05.364Z,16.73
2023-02-08T11:10:33.493Z,12.73
2023-02-08T11:13:05.740Z,14.50
2023-02-08T11:15:39.908Z,17.60
2023-02-08T11:18:16.553Z,14.67
2023-02-08T11:20:49.541Z,12.70
2023-02-08T11:23:23.335Z,17.50
2023-02-08T11:25:52.043Z,16.93
2023-02-08T11:28:26.334Z,17.40
2023-02-08T11:30:59.813Z,16.13
2023-02-08T11:33:29.584Z,16.70
2023-02-08T11:36:01.385Z,13.70
2023-02-08T11:38:32.295Z,17.77
2023-02-08T11:41:03.352Z,17.13
2023-02-08T11:43:33.428Z,15.57
2023-02-08T11:46:03.672Z,17.00
2023-02-08T11:48:41.195Z,13.83
2023-02-08T11:51:10.954Z,15.97
2023-02-08T11:53:41.987Z,15.37
2023-02-08T11:56:18.438Z,15.23
2023-02-08T11:59:02.294Z,16.20
2023-02-08T12:01:32.077Z,18.77
2023-02-08T12:04:02.819Z,15.87
2023-02-08T12:07:10.004Z,15.50
2023-02-08T12:09:52.799Z,11.43
2023-02-08T12:12:30.742Z,11.40
2023-02-08T12:15:10.276Z,11.73
2023-02-08T12:17:56.273Z,12.27
2023-02-08T12:20:40.346Z,15.63
2023-02-08T12:23:25.274Z,10.43
2023-02-08T12:26:06.327Z,11.80
2023-02-08T12:28:47.140Z,15.30
2023-02-08T12:31:24.006Z,10.33
2023-02-08T12:34:03.113Z,11.10
2023-02-08T12:36:44.434Z,12.03
2023-02-08T12:39:57.397Z,12.17
2023-02-08T12:42:40.600Z,12.50
2023-02-08T12:45:29.830Z,8.57
2023-02-08T12:48:07.821Z,10.43
2023-02-08T12:50:46.353Z,16.63
2023-02-08T12:53:22.290Z,10.60
2023-02-08T12:55:52.248Z,8.47
2023-02-08T12:58:29.526Z,7.50
2023-02-08T13:01:02.864Z,10.70
2023-02-08T13:03:38.668Z,8.20
2023-02-08T13:06:08.814Z,13.83
2023-02-08T13:08:41.982Z,9.30
2023-02-08T13:11:20.196Z,6.40
2023-02-08T13:13:58.017Z,9.43
2023-02-08T13:16:30.085Z,8.23
2023-02-08T13:19:12.323Z,7.50
2023-02-08T13:21:43.823Z,10.83
2023-02-08T13:24:20.597Z,9.53
2023-02-08T13:26:48.548Z,8.83
2023-02-08T13:29:21.334Z,7.77
2023-02-08T13:31:53.685Z,6.90
2023-02-08T13:34:29.372Z,6.13
2023-02-08T13:37:00.842Z,8.90
2023-02-08T13:39:36.514Z,7.13
2023-02-08T13:42:07.192Z,12.13
2023-02-08T13:44:38.455Z,10.90
2023-02-08T13:47:08.670Z,15.97
2023-02-08T13:49:45.185Z,8.33
2023-02-08T13:52:13.777Z,11.00
2023-02-08T13:54:42.351Z,9.50
2023-02-08T13:57:43.799Z,9.50
2023-02-08T14:00:24.798Z,9.47
2023-02-08T14:03:04.156Z,9.90
2023-02-08T14:05:45.206Z,16.30
2023-02-08T14:08:25.041Z,9.77
2023-02-08T14:11:07.258Z,9.03
2023-02-08T14:13:40.878Z,9.00
2023-02-08T14:16:31.763Z,11.30
2023-02-08T14:19:01.357Z,10.93
2023-02-08T14:21:34.496Z,11.97
2023-02-08T14:24:05.278Z,9.80
2023-02-08T14:26:33.747Z,10.60
2023-02-08T14:29:06.033Z,8.40
2023-02-08T14:31:43.960Z,12.90
2023-02-08T14:34:25.343Z,13.13
2023-02-08T14:37:02.346Z,9.23
2023-02-08T14:39:33.517Z,13.77
2023-02-08T14:42:05.409Z,16.50
2023-02-08T14:45:04.562Z,10.03
2023-02-08T14:48:20.007Z,9.53
2023-02-08T14:51:10.620Z,13.33
2023-02-08T14:53:45.074Z,11.77
2023-02-08T14:56:20.483Z,11.47
2023-02-08T14:58:52.506Z,9.67
2023-02-08T15:01:22.741Z,8.87
2023-02-08T15:03:54.608Z,9.63
2023-02-08T15:06:57.628Z,10.50
2023-02-08T15:09:30.091Z,8.83
2023-02-08T15:12:03.494Z,10.63
2023-02-08T15:14:34.599Z,12.57
2023-02-08T15:17:03.119Z,13.40
2023-02-08T15:19:35.109Z,9.93
2023-02-08T15:22:30.954Z,11.10
2023-02-08T15:25:02.221Z,12.37
2023-02-08T15:27:32.088Z,11.53
2023-02-08T15:30:00.151Z,9.20
2023-02-08T15:32:30.601Z,11.27
2023-02-08T15:35:00.525Z,11.40
2023-02-08T15:37:31.709Z,10.10
2023-02-08T15:40:02.694Z,8.07
2023-02-08T15:42:34.458Z,7.77
2023-02-08T15:45:04.368Z,10.53
2023-02-08T15:47:35.933Z,11.70
2023-02-08T15:50:07.591Z,9.83
2023-02-08T15:52:38.184Z,10.80
2023-02-08T15:55:10.361Z,8.90
2023-02-08T15:57:44.099Z,14.50
2023-02-08T16:00:16.854Z,15.10
2023-02-08T16:02:45.848Z,20.33
2023-02-08T16:05:21.825Z,69.43
2023-02-08T16:07:51.785Z,23.20
2023-02-08T16:10:33.504Z,15.83
2023-02-08T16:13:05.806Z,16.97
2023-02-08T16:15:44.912Z,16.90
2023-02-08T16:18:39.294Z,20.77
2023-02-08T16:21:20.577Z,25.17
2023-02-08T16:23:53.574Z,42.10
2023-02-08T16:26:28.152Z,23.80
2023-02-08T16:28:59.645Z,42.03
2023-02-08T16:31:30.117Z,36.50
2023-02-08T16:34:00.773Z,28.47
2023-02-08T16:36:33.695Z,20.93
2023-02-08T16:39:47.892Z,16.00
2023-02-08T16:42:29.233Z,31.53
2023-02-08T16:45:17.338Z,28.97
2023-02-08T16:47:48.296Z,30.07
2023-02-08T16:50:18.665Z,24.17
2023-02-08T16:52:50.605Z,22.70
2023-02-08T16:55:21.605Z,24.80
2023-02-08T16:57:52.465Z,27.30
2023-02-08T17:00:23.941Z,27.30
2023-02-08T17:02:53.258Z,36.83
2023-02-08T17:05:22.763Z,39.53
2023-02-08T17:07:51.640Z,44.50
2023-02-08T17:10:28.322Z,34.57
2023-02-08T17:13:17.452Z,24.30
2023-02-08T17:15:47.644Z,21.30
2023-02-08T17:18:15.673Z,24.10
2023-02-08T17:20:44.079Z,20.07
2023-02-08T17:23:12.083Z,21.93
2023-02-08T17:25:41.978Z,19.70
2023-02-08T17:28:17.155Z,20.40
2023-02-08T17:30:46.015Z,16.50
2023-02-08T17:33:18.238Z,19.53
2023-02-08T17:35:47.833Z,14.07
2023-02-08T17:38:15.775Z,14.17
2023-02-08T17:40:45.078Z,11.90
2023-02-08T17:43:14.994Z,15.57
2023-02-08T17:45:44.922Z,11.23
2023-02-08T17:48:14.388Z,12.13
2023-02-08T17:50:44.128Z,18.97
2023-02-08T17:53:12.367Z,20.63
2023-02-08T17:55:42.824Z,19.30
2023-02-08T17:58:10.936Z,16.93
2023-02-08T18:00:40.491Z,17.93
2023-02-08T18:03:08.471Z,20.20
2023-02-08T18:05:36.837Z,21.13
2023-02-08T18:08:05.001Z,27.77
2023-02-08T18:10:33.053Z,30.93
2023-02-08T18:13:01.026Z,24.00
2023-02-08T18:15:28.930Z,31.00
2023-02-08T18:17:58.215Z,25.57
2023-02-08T18:20:26.598Z,30.30
2023-02-08T18:22:54.473Z,27.57
2023-02-08T18:25:22.315Z,31.40
2023-02-08T18:27:50.195Z,31.80
2023-02-08T18:30:18.895Z,29.70
2023-02-08T18:32:47.159Z,36.23
2023-02-08T18:35:16.385Z,27.57
2023-02-08T18:37:46.446Z,30.80
2023-02-08T18:40:14.262Z,34.53
2023-02-08T18:42:42.174Z,37.47
2023-02-08T18:45:10.843Z,34.53
2023-02-08T18:47:39.856Z,37.23
2023-02-08T18:50:09.100Z,30.47
2023-02-08T18:52:38.298Z,30.43
2023-02-08T18:55:07.103Z,30.77
2023-02-08T18:57:38.835Z,29.80
2023-02-08T19:00:07.647Z,26.53
2023-02-08T19:02:36.550Z,27.00
2023-02-08T19:05:06.642Z,29.90
2023-02-08T19:07:35.439Z,28.00
2023-02-08T19:10:05.192Z,31.90
2023-02-08T19:12:33.161Z,30.80
2023-02-08T19:15:01.158Z,29.70
2023-02-08T19:17:29.151Z,31.53
2023-02-08T19:19:57.018Z,27.10
2023-02-08T19:22:24.873Z,27.93
2023-02-08T19:24:53.326Z,27.63
2023-02-08T19:27:22.540Z,30.13
2023-02-08T19:29:52.271Z,61.80
2023-02-08T19:32:20.236Z,32.13
2023-02-08T19:34:48.191Z,31.60
2023-02-08T19:37:16.060Z,29.80
2023-02-08T19:39:44.044Z,27.37
2023-02-08T19:42:12.001Z,31.43
2023-02-08T19:44:41.268Z,28.70
2023-02-08T19:47:09.192Z,33.67
2023-02-08T19:49:37.224Z,30.00
2023-02-08T19:52:05.337Z,34.20
2023-02-08T19:54:33.419Z,32.70
2023-02-08T19:57:01.436Z,35.90
2023-02-08T19:59:33.151Z,31.83
2023-02-08T20:02:04.271Z,35.70
2023-02-08T20:04:33.019Z,34.73
2023-02-08T20:07:00.842Z,33.90
2023-02-08T20:09:28.821Z,38.53
2023-02-08T20:11:57.995Z,34.43
2023-02-08T20:14:26.540Z,33.50
2023-02-08T20:16:54.497Z,34.10
2023-02-08T20:19:24.264Z,35.80
2023-02-08T20:21:52.356Z,34.00
2023-02-08T20:24:20.676Z,34.87
2023-02-08T20:26:49.590Z,33.33
2023-02-08T20:29:18.177Z,33.97
2023-02-08T20:31:48.607Z,38.80
2023-02-08T20:34:18.923Z,35.13
2023-02-08T20:37:06.898Z,32.30
2023-02-08T20:39:39.975Z,35.10
2023-02-08T20:42:07.986Z,33.10
2023-02-08T20:44:36.002Z,33.93
2023-02-08T20:47:03.928Z,34.50
2023-02-08T20:49:32.389Z,35.37
2023-02-08T20:52:01.717Z,33.37
2023-02-08T20:54:29.583Z,32.23
2023-02-08T20:56:58.401Z,36.47
2023-02-08T20:59:26.265Z,38.63
2023-02-08T21:01:54.215Z,32.43
2023-02-08T21:04:23.506Z,36.97
2023-02-08T21:06:52.097Z,35.50
2023-02-08T21:09:22.058Z,36.70
2023-02-08T21:11:50.316Z,34.90
2023-02-08T21:14:20.796Z,38.70
2023-02-08T21:16:50.866Z,34.20
2023-02-08T21:19:20.523Z,33.40
2023-02-08T21:21:51.205Z,30.47
2023-02-08T21:24:19.100Z,34.53
2023-02-08T21:26:48.332Z,30.47
2023-02-08T21:29:16.623Z,33.90
2023-02-08T21:31:44.757Z,32.30
2023-02-08T21:34:13.428Z,33.43
2023-02-08T21:36:41.321Z,34.60
2023-02-08T21:39:09.219Z,31.40
2023-02-08T21:41:37.240Z,33.77
2023-02-08T21:44:08.129Z,30.77
2023-02-08T21:46:36.375Z,32.83
2023-02-08T21:49:22.054Z,33.20
2023-02-08T21:52:07.695Z,28.70
2023-02-08T21:54:42.537Z,34.97
2023-02-08T21:57:12.360Z,32.00
2023-02-08T21:59:41.828Z,36.13
2023-02-08T22:02:14.306Z,38.80
2023-02-08T22:04:59.935Z,36.10
2023-02-08T22:07:28.937Z,31.97
2023-02-08T22:09:56.877Z,31.57
2023-02-08T22:12:24.769Z,27.80
2023-02-08T22:14:54.127Z,30.90
2023-02-08T22:17:22.020Z,32.77
2023-02-08T22:19:49.818Z,31.60
2023-02-08T22:22:17.763Z,31.63
2023-02-08T22:24:45.639Z,32.10
2023-02-08T22:27:13.647Z,31.87
2023-02-08T22:29:41.465Z,29.33
2023-02-08T22:32:12.532Z,29.80
2023-02-08T22:34:40.558Z,28.70
2023-02-08T22:37:08.488Z,28.57
2023-02-08T22:39:36.551Z,27.40
2023-02-08T22:42:08.548Z,30.70
2023-02-08T22:44:36.640Z,24.63
2023-02-08T22:47:04.825Z,29.47
2023-02-08T22:49:34.448Z,28.47
2023-02-08T22:52:03.313Z,28.37
2023-02-08T22:54:31.146Z,27.27
2023-02-08T22:56:59.038Z,32.20
2023-02-08T22:59:26.879Z,30.20
2023-02-08T23:01:55.502Z,23.67
2023-02-08T23:04:23.430Z,31.20
2023-02-08T23:06:52.677Z,32.33
2023-02-08T23:09:20.674Z,30.50
2023-02-08T23:11:48.618Z,30.23
2023-02-08T23:14:16.735Z,31.90
2023-02-08T23:16:44.710Z,28.17
2023-02-08T23:19:14.440Z,26.53
2023-02-08T23:21:42.567Z,30.43
2023-02-08T23:24:12.510Z,28.27
2023-02-08T23:26:40.624Z,31.93
2023-02-08T23:29:08.604Z,27.17
2023-02-08T23:31:36.541Z,36.90
2023-02-08T23:34:04.454Z,31.20
2023-02-08T23:36:32.387Z,31.97
2023-02-08T23:39:01.403Z,26.77
2023-02-08T23:41:30.755Z,29.40
2023-02-08T23:43:58.806Z,32.00
2023-02-08T23:46:28.799Z,31.50
2023-02-08T23:48:57.156Z,29.97
2023-02-08T23:51:26.528Z,32.43
2023-02-08T23:53:55.373Z,30.20
2023-02-08T23:56:25.352Z,29.33
2023-02-08T23:58:56.770Z,27.70
